createdAt,value
2019-02-28T00:01:43.208Z,100336.33
2019-02-28T00:04:15.646Z,100335.14
2019-02-28T00:06:46.922Z,100326.45
2019-02-28T00:09:19.775Z,100326.23
2019-02-28T00:11:51.101Z,100325.97
2019-02-28T00:14:22.492Z,100313.45
2019-02-28T00:16:53.851Z,100310.10
2019-02-28T00:19:25.443Z,100304.01
2019-02-28T00:21:56.753Z,100306.16
2019-02-28T00:24:30.015Z,100298.40
2019-02-28T00:27:01.220Z,100288.11
2019-02-28T00:29:33.697Z,100289.86
2019-02-28T00:32:05.641Z,100294.16
2019-02-28T00:34:39.215Z,100291.19
2019-02-28T00:37:11.336Z,100292.49
2019-02-28T00:39:42.452Z,100292.56
2019-02-28T00:42:17.438Z,100292.60
2019-02-28T00:44:46.802Z,100288.80
2019-02-28T00:47:18.192Z,100290.11
2019-02-28T00:49:49.368Z,100286.66
2019-02-28T00:52:20.611Z,100283.72
2019-02-28T00:54:51.821Z,100275.47
2019-02-28T00:57:23.794Z,100271.20
2019-02-28T00:59:56.077Z,100270.55
2019-02-28T01:02:27.370Z,100265.05
2019-02-28T01:05:01.384Z,100259.31
2019-02-28T01:07:32.112Z,100257.70
2019-02-28T01:10:05.160Z,100251.62
2019-02-28T01:12:36.455Z,100245.77
2019-02-28T01:15:13.748Z,100251.38
2019-02-28T01:17:44.867Z,100250.14
2019-02-28T01:20:16.712Z,100237.56
2019-02-28T01:22:48.085Z,100234.08
2019-02-28T01:25:19.234Z,100232.38
2019-02-28T01:27:52.432Z,100228.00
2019-02-28T01:30:24.288Z,100225.36
2019-02-28T01:32:55.522Z,100226.33
2019-02-28T01:35:26.879Z,100222.42
2019-02-28T01:37:58.119Z,100209.57
2019-02-28T01:40:29.368Z,100213.09
2019-02-28T01:43:00.516Z,100210.91
2019-02-28T01:45:31.766Z,100208.27
2019-02-28T01:48:03.038Z,100201.81
2019-02-28T01:50:34.367Z,100195.91
2019-02-28T01:53:05.677Z,100192.86
2019-02-28T01:55:36.965Z,100185.14
2019-02-28T01:58:08.084Z,100183.84
2019-02-28T02:00:39.349Z,100179.50
2019-02-28T02:03:11.958Z,100175.75
2019-02-28T02:05:43.172Z,100176.97
2019-02-28T02:08:15.252Z,100174.25
2019-02-28T02:10:46.498Z,100174.72
2019-02-28T02:13:17.840Z,100165.77
2019-02-28T02:15:51.371Z,100169.84
2019-02-28T02:18:22.328Z,100162.97
2019-02-28T02:20:53.508Z,100158.97
2019-02-28T02:23:24.808Z,100156.34
2019-02-28T02:25:56.028Z,100143.72
2019-02-28T02:28:27.886Z,100139.08
2019-02-28T02:30:59.073Z,100129.99
2019-02-28T02:33:32.017Z,100128.44
2019-02-28T02:36:03.540Z,100127.70
2019-02-28T02:38:39.872Z,100123.28
2019-02-28T02:41:07.829Z,100118.13
2019-02-28T02:43:39.308Z,100118.98
2019-02-28T02:46:10.793Z,100115.04
2019-02-28T02:48:42.660Z,100110.73
2019-02-28T02:51:15.381Z,100122.72
2019-02-28T02:53:48.084Z,100114.93
2019-02-28T02:56:20.231Z,100107.05
2019-02-28T02:58:51.597Z,100100.93
2019-02-28T03:01:23.447Z,100106.05
2019-02-28T03:03:55.659Z,100111.20
2019-02-28T03:06:27.191Z,100100.73
2019-02-28T03:08:58.477Z,100086.28
2019-02-28T03:11:29.658Z,100095.38
2019-02-28T03:14:01.047Z,100085.09
2019-02-28T03:16:33.389Z,100075.56
2019-02-28T03:19:05.397Z,100069.67
2019-02-28T03:21:36.591Z,100064.11
2019-02-28T03:24:14.605Z,100065.72
2019-02-28T03:26:41.909Z,100064.91
2019-02-28T03:29:14.033Z,100064.52
2019-02-28T03:31:54.910Z,100050.26
2019-02-28T03:34:18.424Z,100047.25
2019-02-28T03:36:55.238Z,100039.73
2019-02-28T03:39:24.740Z,100037.14
2019-02-28T03:41:55.897Z,100032.83
2019-02-28T03:44:27.100Z,100035.80
2019-02-28T03:47:00.416Z,100032.83
2019-02-28T03:49:32.656Z,100016.47
2019-02-28T03:52:06.606Z,100016.08
2019-02-28T03:54:38.101Z,100009.70
2019-02-28T03:57:09.960Z,100016.66
2019-02-28T03:59:41.661Z,100015.92
2019-02-28T04:02:12.784Z,100010.64
2019-02-28T04:04:48.829Z,100007.02
2019-02-28T04:07:17.084Z,100000.03
2019-02-28T04:09:48.405Z,100001.86
2019-02-28T04:12:19.616Z,99992.54
2019-02-28T04:14:50.793Z,99996.80
2019-02-28T04:17:21.988Z,99989.81
2019-02-28T04:19:58.626Z,99985.15
2019-02-28T04:22:26.867Z,99985.69
2019-02-28T04:24:58.111Z,99972.20
2019-02-28T04:27:29.309Z,99967.45
2019-02-28T04:30:05.733Z,99974.48
2019-02-28T04:32:34.871Z,99971.84
2019-02-28T04:35:06.106Z,99964.85
2019-02-28T04:37:37.294Z,99961.95
2019-02-28T04:40:10.705Z,99966.47
2019-02-28T04:42:41.960Z,99961.72
2019-02-28T04:45:14.036Z,99956.30
2019-02-28T04:47:45.404Z,99957.11
2019-02-28T04:50:16.815Z,99951.81
2019-02-28T04:52:48.307Z,99955.58
2019-02-28T04:55:19.501Z,99954.91
2019-02-28T04:57:51.619Z,99947.74
2019-02-28T05:00:24.564Z,99946.77
2019-02-28T05:02:55.927Z,99937.25
2019-02-28T05:05:27.393Z,99930.63
2019-02-28T05:08:04.539Z,99938.78
2019-02-28T05:10:31.823Z,99924.80
2019-02-28T05:13:03.088Z,99917.70
2019-02-28T05:15:37.311Z,99911.11
2019-02-28T05:18:07.660Z,99909.05
2019-02-28T05:20:39.054Z,99909.05
2019-02-28T05:23:10.289Z,99915.20
2019-02-28T05:25:41.693Z,99909.19
2019-02-28T05:28:12.940Z,99912.31
2019-02-28T05:30:44.367Z,99911.45
2019-02-28T05:33:15.712Z,99894.11
2019-02-28T05:35:47.271Z,99889.20
2019-02-28T05:38:21.224Z,99879.05
2019-02-28T05:40:51.454Z,99878.16
2019-02-28T05:43:22.906Z,99876.45
2019-02-28T05:45:54.178Z,99867.99
2019-02-28T05:48:25.576Z,99868.30
2019-02-28T05:50:57.110Z,99864.28
2019-02-28T05:53:28.565Z,99864.02
2019-02-28T05:56:00.033Z,99854.30
2019-02-28T05:58:31.464Z,99851.88
2019-02-28T06:01:02.951Z,99846.34
2019-02-28T06:03:34.211Z,99845.42
2019-02-28T06:06:07.929Z,99851.66
2019-02-28T06:08:39.238Z,99847.27
2019-02-28T06:11:11.331Z,99834.26
2019-02-28T06:13:42.754Z,99838.14
2019-02-28T06:16:14.241Z,99825.07
2019-02-28T06:18:45.613Z,99818.19
2019-02-28T06:21:16.961Z,99823.55
2019-02-28T06:23:48.286Z,99816.90
2019-02-28T06:26:19.948Z,99822.59
2019-02-28T06:28:51.195Z,99814.05
2019-02-28T06:31:22.643Z,99821.73
2019-02-28T06:33:54.729Z,99818.34
2019-02-28T06:36:29.224Z,99816.33
2019-02-28T06:38:59.203Z,99807.87
2019-02-28T06:41:30.620Z,99808.77
2019-02-28T06:44:01.903Z,99812.62
2019-02-28T06:46:33.430Z,99801.09
2019-02-28T06:49:07.133Z,99790.84
2019-02-28T06:51:37.941Z,99787.02
2019-02-28T06:54:09.454Z,99789.82
2019-02-28T06:56:40.863Z,99787.27
2019-02-28T06:59:12.371Z,99789.31
2019-02-28T07:01:43.750Z,99777.12
2019-02-28T07:04:15.309Z,99768.83
2019-02-28T07:06:46.975Z,99753.66
2019-02-28T07:09:18.411Z,99757.67
2019-02-28T07:11:51.298Z,99744.33
2019-02-28T07:14:22.865Z,99734.42
2019-02-28T07:16:54.503Z,99731.98
2019-02-28T07:19:27.073Z,99717.06
2019-02-28T07:21:58.641Z,99708.27
2019-02-28T07:24:30.052Z,99701.77
2019-02-28T07:27:01.357Z,99701.09
2019-02-28T07:29:32.784Z,99700.67
2019-02-28T07:32:04.056Z,99700.38
2019-02-28T07:34:35.246Z,99691.41
2019-02-28T07:37:06.930Z,99689.88
2019-02-28T07:39:40.466Z,99681.89
2019-02-28T07:42:12.995Z,99671.67
2019-02-28T07:44:44.206Z,99671.72
2019-02-28T07:47:17.559Z,99649.98
2019-02-28T07:49:50.187Z,99647.56
2019-02-28T07:52:22.770Z,99638.65
2019-02-28T07:54:55.755Z,99638.65
2019-02-28T07:57:27.178Z,99633.64
2019-02-28T07:59:59.961Z,99631.30
2019-02-28T08:02:31.734Z,99619.91
2019-02-28T08:05:03.106Z,99616.95
2019-02-28T08:07:34.534Z,99621.76
2019-02-28T08:10:12.778Z,99614.19
2019-02-28T08:12:43.454Z,99602.42
2019-02-28T08:15:21.141Z,99590.94
2019-02-28T08:17:50.288Z,99596.77
2019-02-28T08:20:21.846Z,99587.64
2019-02-28T08:22:56.490Z,99582.23
2019-02-28T08:25:26.276Z,99576.39
2019-02-28T08:27:59.672Z,99585.80
2019-02-28T08:30:32.643Z,99565.09
2019-02-28T08:33:04.097Z,99552.98
2019-02-28T08:35:35.919Z,99537.14
2019-02-28T08:38:07.709Z,99536.30
2019-02-28T08:40:39.164Z,99546.19
2019-02-28T08:58:06.223Z,99490.20
2019-02-28T09:00:37.751Z,99506.86
2019-02-28T09:03:09.068Z,99500.45
2019-02-28T09:05:40.164Z,99483.80
2019-02-28T09:08:11.555Z,99489.87
2019-02-28T09:10:43.751Z,99471.43
2019-02-28T09:13:15.774Z,99483.92
2019-02-28T09:15:46.988Z,99475.84
2019-02-28T09:18:19.713Z,99468.01
2019-02-28T09:20:50.787Z,99452.69
2019-02-28T09:23:23.497Z,99437.23
2019-02-28T09:25:56.731Z,99442.95
2019-02-28T09:28:27.530Z,99442.73
2019-02-28T09:31:01.341Z,99436.29
2019-02-28T09:33:32.018Z,99422.69
2019-02-28T09:36:03.380Z,99417.14
2019-02-28T09:38:34.933Z,99398.31
2019-02-28T09:41:06.202Z,99387.63
2019-02-28T09:43:37.312Z,99371.59
2019-02-28T09:46:09.095Z,99357.62
2019-02-28T09:48:40.134Z,99362.47
2019-02-28T09:51:11.131Z,99372.26
2019-02-28T09:53:43.311Z,99347.70
2019-02-28T09:56:14.420Z,99332.41
2019-02-28T09:58:45.373Z,99329.59
2019-02-28T10:01:16.535Z,99336.86
2019-02-28T10:03:47.787Z,99331.93
2019-02-28T10:06:18.955Z,99325.27
2019-02-28T10:08:50.231Z,99319.59
2019-02-28T10:11:21.867Z,99314.36
2019-02-28T10:13:54.140Z,99307.48
2019-02-28T10:16:25.400Z,99305.89
2019-02-28T10:18:57.344Z,99289.27
2019-02-28T10:21:28.543Z,99282.50
2019-02-28T10:23:59.526Z,99262.86
2019-02-28T10:26:30.749Z,99250.47
2019-02-28T10:29:04.494Z,99254.19
2019-02-28T10:31:38.147Z,99248.81
2019-02-28T10:34:07.889Z,99245.58
2019-02-28T10:36:39.221Z,99245.00
2019-02-28T10:39:10.513Z,99238.00
2019-02-28T10:41:45.603Z,99222.55
2019-02-28T10:44:18.306Z,99226.48
2019-02-28T10:46:53.848Z,99227.78
2019-02-28T10:49:24.103Z,99214.09
2019-02-28T10:52:02.635Z,99224.25
2019-02-28T10:54:33.958Z,99219.27
2019-02-28T10:57:05.933Z,99215.74
2019-02-28T10:59:37.893Z,99206.56
2019-02-28T11:02:13.527Z,99202.18
2019-02-28T11:04:44.084Z,99204.58
2019-02-28T11:07:15.390Z,99175.20
2019-02-28T11:09:46.751Z,99173.66
2019-02-28T11:12:20.306Z,99176.04
2019-02-28T11:14:52.536Z,99149.48
2019-02-28T11:17:23.892Z,99145.94
2019-02-28T11:19:55.040Z,99139.02
2019-02-28T11:22:26.284Z,99126.32
2019-02-28T11:25:00.865Z,99134.25
2019-02-28T11:27:30.624Z,99140.41
2019-02-28T11:30:01.799Z,99100.70
2019-02-28T11:32:33.038Z,99096.86
2019-02-28T11:35:05.810Z,99095.15
2019-02-28T11:37:42.341Z,99099.32
2019-02-28T11:40:17.615Z,99095.16
2019-02-28T11:42:48.702Z,99092.36
2019-02-28T11:45:25.569Z,99088.58
2019-02-28T11:47:58.618Z,99086.23
2019-02-28T11:50:29.814Z,99085.69
2019-02-28T11:53:04.859Z,99045.31
2019-02-28T11:55:33.980Z,99047.30
2019-02-28T11:58:05.254Z,99069.73
2019-02-28T12:00:40.279Z,99033.44
2019-02-28T12:03:11.609Z,99041.94
2019-02-28T12:05:43.031Z,99035.36
2019-02-28T12:08:14.430Z,99014.86
2019-02-28T12:10:45.776Z,99020.10
2019-02-28T12:13:19.641Z,99013.59
2019-02-28T12:15:50.224Z,99015.20
2019-02-28T12:18:21.490Z,99003.42
2019-02-28T12:20:52.588Z,98996.59
2019-02-28T12:23:25.094Z,98989.31
2019-02-28T12:25:56.232Z,98992.39
2019-02-28T12:28:28.557Z,98995.38
2019-02-28T12:31:00.311Z,98986.17
2019-02-28T12:33:32.685Z,98970.84
2019-02-28T12:36:04.019Z,98983.65
2019-02-28T12:38:35.363Z,98986.52
2019-02-28T12:41:07.046Z,98992.69
2019-02-28T12:43:40.636Z,98974.12
2019-02-28T12:46:12.461Z,98982.44
2019-02-28T12:48:45.585Z,98961.75
2019-02-28T12:51:19.037Z,98947.98
2019-02-28T12:53:51.692Z,98952.22
2019-02-28T12:56:23.370Z,98936.70
2019-02-28T12:58:55.262Z,98943.99
2019-02-28T13:01:26.689Z,98938.45
2019-02-28T13:04:00.622Z,98924.86
2019-02-28T13:06:31.324Z,98921.45
2019-02-28T13:09:05.631Z,98942.59
2019-02-28T13:11:37.996Z,98917.73
2019-02-28T13:14:10.661Z,98908.28
2019-02-28T13:16:42.316Z,98894.98
2019-02-28T13:19:16.447Z,98880.94
2019-02-28T13:21:47.867Z,98885.23
2019-02-28T13:24:20.753Z,98871.24
2019-02-28T13:26:52.209Z,98870.30
2019-02-28T13:29:24.127Z,98853.66
2019-02-28T13:32:01.447Z,98860.95
2019-02-28T13:34:32.533Z,98851.22
2019-02-28T13:37:03.778Z,98870.58
2019-02-28T13:39:35.151Z,98862.55
2019-02-28T13:42:06.998Z,98858.14
2019-02-28T13:44:39.028Z,98841.31
2019-02-28T13:47:12.362Z,98836.28
2019-02-28T13:49:46.600Z,98827.97
2019-02-28T13:52:20.518Z,98820.37
2019-02-28T13:54:50.356Z,98830.84
2019-02-28T13:57:21.907Z,98823.73
2019-02-28T13:59:53.362Z,98820.58
2019-02-28T14:02:26.219Z,98800.94
2019-02-28T14:05:03.043Z,98815.04
2019-02-28T14:07:33.750Z,98800.10
2019-02-28T14:10:07.481Z,98778.02
2019-02-28T14:12:41.979Z,98781.58
2019-02-28T14:15:16.900Z,98777.28
2019-02-28T14:17:49.069Z,98757.38
2019-02-28T14:20:20.433Z,98755.39
2019-02-28T14:22:52.116Z,98761.10
2019-02-28T14:25:23.820Z,98765.77
2019-02-28T14:27:56.991Z,98754.77
2019-02-28T14:30:28.878Z,98757.38
2019-02-28T14:33:00.630Z,98737.65
2019-02-28T14:35:35.115Z,98731.95
2019-02-28T14:38:05.845Z,98726.03
2019-02-28T14:40:37.820Z,98723.16
2019-02-28T14:43:10.987Z,98720.53
2019-02-28T14:45:46.810Z,98711.64
2019-02-28T14:48:18.205Z,98705.58
2019-02-28T14:50:50.622Z,98699.88
2019-02-28T14:53:23.142Z,98706.14
2019-02-28T14:55:54.344Z,98700.53
2019-02-28T14:58:25.821Z,98699.95
2019-02-28T15:00:57.213Z,98682.39
2019-02-28T15:03:28.677Z,98680.52
2019-02-28T15:06:00.405Z,98678.64
2019-02-28T15:08:31.772Z,98674.91
2019-02-28T15:11:03.188Z,98667.91
2019-02-28T15:13:34.813Z,98668.36
2019-02-28T15:16:06.260Z,98664.91
2019-02-28T15:18:37.939Z,98670.88
2019-02-28T15:21:09.606Z,98660.41
2019-02-28T15:23:40.923Z,98655.64
2019-02-28T15:26:12.938Z,98655.43
2019-02-28T15:28:45.499Z,98652.27
2019-02-28T15:31:17.785Z,98653.48
2019-02-28T15:33:50.054Z,98645.98
2019-02-28T15:36:24.168Z,98644.42
2019-02-28T15:38:54.576Z,98638.03
2019-02-28T15:41:25.851Z,98629.81
2019-02-28T15:43:57.117Z,98623.63
2019-02-28T15:46:31.482Z,98620.91
2019-02-28T15:49:02.740Z,98622.31
2019-02-28T15:51:34.092Z,98616.14
2019-02-28T15:54:05.490Z,98615.98
2019-02-28T15:56:36.792Z,98618.97
2019-02-28T15:59:07.979Z,98616.05
2019-02-28T16:01:39.170Z,98623.00
2019-02-28T16:04:17.360Z,98628.39
2019-02-28T16:06:56.624Z,98622.69
2019-02-28T16:09:22.263Z,98610.90
2019-02-28T16:11:53.554Z,98609.05
2019-02-28T16:14:24.888Z,98583.37
2019-02-28T16:16:56.779Z,98579.09
2019-02-28T16:19:28.898Z,98594.33
2019-02-28T16:22:01.505Z,98593.20
2019-02-28T16:24:32.736Z,98586.66
2019-02-28T16:27:04.033Z,98589.27
2019-02-28T16:29:36.469Z,98579.89
2019-02-28T16:32:07.870Z,98586.76
2019-02-28T16:34:42.398Z,98572.80
2019-02-28T16:37:13.485Z,98572.51
2019-02-28T16:39:44.854Z,98555.19
2019-02-28T16:42:17.831Z,98540.35
2019-02-28T16:44:49.211Z,98550.61
2019-02-28T16:47:21.550Z,98542.72
2019-02-28T16:49:53.468Z,98533.95
2019-02-28T16:52:24.587Z,98543.30
2019-02-28T16:54:56.355Z,98530.56
2019-02-28T16:57:29.793Z,98532.34
2019-02-28T17:00:04.040Z,98544.42
2019-02-28T17:02:35.411Z,98544.13
2019-02-28T17:05:09.611Z,98535.44
2019-02-28T17:07:43.616Z,98531.88
2019-02-28T17:10:25.244Z,98527.84
2019-02-28T17:13:15.453Z,98525.98
2019-02-28T17:16:02.480Z,98524.85
2019-02-28T17:18:36.761Z,98526.89
2019-02-28T17:21:08.369Z,98515.58
2019-02-28T17:23:39.570Z,98503.33
2019-02-28T17:26:12.859Z,98498.83
2019-02-28T17:28:46.547Z,98508.45
2019-02-28T17:31:26.250Z,98472.93
2019-02-28T17:33:57.594Z,98488.24
2019-02-28T17:36:28.905Z,98479.66
2019-02-28T17:39:00.385Z,98460.13
2019-02-28T17:41:37.163Z,98462.10
2019-02-28T17:44:23.281Z,98474.35
2019-02-28T17:47:04.332Z,98473.88
2019-02-28T17:49:44.603Z,98462.69
2019-02-28T17:52:21.915Z,98443.41
2019-02-28T17:55:15.786Z,98468.97
2019-02-28T17:57:59.176Z,98454.72
2019-02-28T18:00:51.787Z,98449.81
2019-02-28T18:03:29.119Z,98466.06
2019-02-28T18:06:08.768Z,98452.91
2019-02-28T18:09:04.825Z,98435.97
2019-02-28T18:11:59.576Z,98437.56
2019-02-28T18:15:00.295Z,98437.92
2019-02-28T18:17:58.091Z,98459.95
2019-02-28T18:20:32.613Z,98424.73
2019-02-28T18:23:21.774Z,98422.11
2019-02-28T18:26:05.295Z,98419.60
2019-02-28T18:28:58.085Z,98426.98
2019-02-28T18:31:28.186Z,98421.64
2019-02-28T18:34:00.638Z,98406.77
2019-02-28T18:36:32.767Z,98408.84
2019-02-28T18:39:08.110Z,98424.14
2019-02-28T18:41:42.052Z,98409.09
2019-02-28T18:44:14.029Z,98412.77
2019-02-28T18:46:45.365Z,98410.50
2019-02-28T18:49:16.848Z,98424.21
2019-02-28T18:51:48.074Z,98418.87
2019-02-28T18:54:20.500Z,98435.38
2019-02-28T18:56:51.833Z,98410.59
2019-02-28T18:59:23.140Z,98418.00
2019-02-28T19:01:56.121Z,98399.75
2019-02-28T19:04:27.566Z,98372.27
2019-02-28T19:07:00.991Z,98392.86
2019-02-28T19:09:32.238Z,98389.30
2019-02-28T19:12:03.487Z,98394.75
2019-02-28T19:14:34.873Z,98382.44
2019-02-28T19:17:07.173Z,98374.22
2019-02-28T19:19:38.742Z,98365.14
2019-02-28T19:22:10.181Z,98355.92
2019-02-28T19:24:41.640Z,98362.86
2019-02-28T19:27:12.953Z,98362.39
2019-02-28T19:29:44.298Z,98346.56
2019-02-28T19:32:16.058Z,98340.68
2019-02-28T19:34:47.319Z,98341.38
2019-02-28T19:37:19.677Z,98334.13
2019-02-28T19:39:50.947Z,98330.31
2019-02-28T19:42:22.094Z,98318.77
2019-02-28T19:44:53.443Z,98313.41
2019-02-28T19:47:24.671Z,98321.16
2019-02-28T19:49:57.243Z,98314.60
2019-02-28T19:52:28.565Z,98305.80
2019-02-28T19:55:00.054Z,98314.90
2019-02-28T19:57:32.313Z,98306.09
2019-02-28T20:00:04.846Z,98315.94
2019-02-28T20:02:36.046Z,98305.95
2019-02-28T20:05:08.598Z,98307.66
2019-02-28T20:07:40.285Z,98307.47
2019-02-28T20:10:14.977Z,98300.48
2019-02-28T20:12:46.437Z,98292.38
2019-02-28T20:15:22.077Z,98292.62
2019-02-28T20:17:53.284Z,98292.34
2019-02-28T20:20:27.342Z,98286.06
2019-02-28T20:22:58.568Z,98300.48
2019-02-28T20:25:30.094Z,98290.00
2019-02-28T20:28:01.263Z,98291.30
2019-02-28T20:30:33.449Z,98285.98
2019-02-28T20:33:07.289Z,98285.30
2019-02-28T20:35:38.593Z,98274.14
2019-02-28T20:38:09.730Z,98278.08
2019-02-28T20:40:41.109Z,98282.63
2019-02-28T20:43:12.290Z,98287.19
2019-02-28T20:45:45.328Z,98289.02
2019-02-28T20:48:16.676Z,98275.58
2019-02-28T20:50:51.049Z,98276.17
2019-02-28T20:53:22.335Z,98277.13
2019-02-28T20:55:53.616Z,98272.83
2019-02-28T20:58:25.944Z,98278.44
2019-02-28T21:00:57.185Z,98284.78
2019-02-28T21:03:28.484Z,98285.49
2019-02-28T21:05:59.915Z,98278.45
2019-02-28T21:08:31.236Z,98280.48
2019-02-28T21:11:02.588Z,98277.48
2019-02-28T21:13:34.019Z,98288.83
2019-02-28T21:16:05.213Z,98290.05
2019-02-28T21:18:37.645Z,98288.02
2019-02-28T21:21:09.189Z,98295.68
2019-02-28T21:23:41.513Z,98302.12
2019-02-28T21:26:12.843Z,98299.73
2019-02-28T21:28:44.012Z,98300.83
2019-02-28T21:31:15.261Z,98299.53
2019-02-28T21:33:46.678Z,98308.51
2019-02-28T21:36:18.023Z,98291.11
2019-02-28T21:38:51.150Z,98302.68
2019-02-28T21:41:22.340Z,98290.15
2019-02-28T21:43:54.552Z,98313.17
2019-02-28T21:46:26.706Z,98316.84
2019-02-28T21:48:58.148Z,98309.70
2019-02-28T21:51:30.268Z,98315.52
2019-02-28T21:54:01.644Z,98322.89
2019-02-28T21:56:32.930Z,98314.78
2019-02-28T21:59:04.059Z,98321.67
2019-02-28T22:01:35.325Z,98318.57
2019-02-28T22:04:06.526Z,98313.77
2019-02-28T22:06:38.336Z,98311.95
2019-02-28T22:09:09.591Z,98319.23
2019-02-28T22:11:41.164Z,98322.06
2019-02-28T22:14:12.312Z,98333.14
2019-02-28T22:16:43.678Z,98332.43
2019-02-28T22:19:16.495Z,98339.58
2019-02-28T22:21:48.383Z,98342.64
2019-02-28T22:24:20.684Z,98349.69
2019-02-28T22:26:52.115Z,98362.39
2019-02-28T22:29:24.998Z,98361.47
2019-02-28T22:31:58.076Z,98365.72
2019-02-28T22:34:30.828Z,98361.18
2019-02-28T22:37:02.164Z,98371.41
2019-02-28T22:39:33.693Z,98363.59
2019-02-28T22:42:04.894Z,98372.38
2019-02-28T22:44:36.139Z,98373.36
2019-02-28T22:47:07.422Z,98368.13
2019-02-28T22:49:39.450Z,98371.64
2019-02-28T22:52:10.715Z,98376.73
2019-02-28T22:54:41.927Z,98374.64
2019-02-28T22:57:13.168Z,98378.34
2019-02-28T22:59:44.530Z,98393.41
2019-02-28T23:02:15.778Z,98383.45
2019-02-28T23:04:46.946Z,98384.63
2019-02-28T23:07:19.367Z,98390.36
2019-02-28T23:09:50.702Z,98385.16
2019-02-28T23:12:22.077Z,98380.58
2019-02-28T23:14:53.263Z,98376.50
2019-02-28T23:17:24.585Z,98376.89
2019-02-28T23:19:55.708Z,98376.05
2019-02-28T23:22:27.209Z,98381.20
2019-02-28T23:24:58.402Z,98381.20
2019-02-28T23:27:29.636Z,98375.61
2019-02-28T23:30:16.081Z,98379.34
2019-02-28T23:32:50.586Z,98381.57
2019-02-28T23:35:24.793Z,98377.73
2019-02-28T23:37:56.076Z,98382.48
2019-02-28T23:40:27.213Z,98386.04
2019-02-28T23:42:58.520Z,98387.19
2019-02-28T23:45:29.709Z,98377.46
2019-02-28T23:48:00.818Z,98393.98
2019-02-28T23:50:31.999Z,98381.67
2019-02-28T23:53:03.453Z,98382.33
2019-02-28T23:55:34.597Z,98380.91
2019-02-28T23:58:05.892Z,98367.95
